Time;durP1;ratioP1;P1;durP2;ratioP2;P2;SDS_P1;SDS_P2;PMS_P1;PMS_P2;Temp;Humidity;BMP_temperature;BMP_pressure;BME280_temperature;BME280_humidity;BME280_pressure;Samples;Min_cycle;Max_cycle;Signal;HPM_P1;HPM_P2
2023/04/01 00:00:53;;;;;;;5.85;4.18;;;;;;;5.93;78.66;95661.97;5093833;28;20048;-60
2023/04/01 00:03:21;;;;;;;6.85;4.50;;;;;;;5.92;77.57;95662.03;5093822;28;20413;-59
2023/04/01 00:05:49;;;;;;;10.13;6.55;;;;;;;5.85;77.96;95656.22;5093680;28;20521;-59
2023/04/01 00:08:17;;;;;;;10.15;5.25;;;;;;;5.85;78.03;95664.00;5093701;28;20044;-59
2023/04/01 00:10:45;;;;;;;8.43;5.00;;;;;;;5.86;77.01;95662.22;5093677;28;20055;-59
2023/04/01 00:13:13;;;;;;;6.95;3.95;;;;;;;5.77;77.75;95656.47;5093614;28;20452;-59
2023/04/01 00:15:40;;;;;;;8.30;4.20;;;;;;;5.77;79.08;95651.25;5093521;28;20482;-59
2023/04/01 00:18:09;;;;;;;17.35;7.10;;;;;;;5.84;81.19;95651.06;5093658;28;20058;-59
2023/04/01 00:20:39;;;;;;;8.13;3.67;;;;;;;5.97;80.61;95649.75;5093416;28;20076;-59
2023/04/01 00:23:07;;;;;;;14.10;4.72;;;;;;;5.95;78.94;95648.94;5093572;28;20452;-60
2023/04/01 00:25:34;;;;;;;9.57;7.68;;;;;;;6.02;80.11;95645.25;5093301;28;20482;-59
2023/04/01 00:28:01;;;;;;;14.57;5.13;;;;;;;6.01;79.83;95645.28;5093342;28;20482;-59
2023/04/01 00:30:29;;;;;;;6.90;3.40;;;;;;;6.07;79.46;95642.53;5093262;28;20082;-59
2023/04/01 00:32:56;;;;;;;6.07;3.50;;;;;;;6.11;79.32;95645.88;5093257;28;20050;-59
2023/04/01 00:35:26;;;;;;;6.93;3.13;;;;;;;6.14;77.73;95641.41;5093311;28;20044;-59
2023/04/01 00:37:53;;;;;;;10.32;3.88;;;;;;;6.14;76.93;95651.78;5093458;28;20052;-59
2023/04/01 00:40:29;;;;;;;7.38;3.22;;;;;;;6.10;75.71;95650.22;5093236;28;20107;-59
2023/04/01 00:42:56;;;;;;;7.85;3.67;;;;;;;6.09;74.28;95652.84;5093157;28;20074;-59
2023/04/01 00:45:33;;;;;;;6.22;2.75;;;;;;;5.82;74.96;95654.53;5093159;28;20154;-59
2023/04/01 00:48:06;;;;;;;7.25;3.30;;;;;;;5.65;76.53;95647.31;5093197;28;20044;-59
2023/04/01 00:50:35;;;;;;;5.35;3.05;;;;;;;5.61;78.74;95637.97;5093274;28;20044;-59
2023/04/01 00:53:04;;;;;;;4.38;2.47;;;;;;;5.63;78.14;95638.72;5093166;28;20087;-59
2023/04/01 00:55:40;;;;;;;7.13;2.60;;;;;;;5.57;76.94;95637.19;5093067;28;20059;-59
2023/04/01 00:58:10;;;;;;;3.97;2.72;;;;;;;5.52;76.81;95643.44;5093200;28;20056;-59
2023/04/01 01:00:38;;;;;;;7.88;2.83;;;;;;;5.51;77.39;95633.97;5093099;28;20044;-59
2023/04/01 01:03:07;;;;;;;6.03;2.97;;;;;;;5.43;77.48;95632.47;5093357;28;20370;-59
2023/04/01 01:05:50;;;;;;;7.05;2.83;;;;;;;5.43;77.92;95631.59;5092694;28;20105;-59
2023/04/01 01:08:30;;;;;;;10.75;4.13;;;;;;;5.42;78.19;95628.16;5093045;28;20097;-59
2023/04/01 01:10:57;;;;;;;5.18;3.15;;;;;;;5.48;78.80;95631.47;5092952;28;20055;-59
2023/04/01 01:13:32;;;;;;;9.15;2.75;;;;;;;5.52;78.10;95617.50;5093147;28;20048;-60
2023/04/01 01:16:05;;;;;;;4.65;2.88;;;;;;;5.54;77.15;95611.34;5092910;28;20048;-59
2023/04/01 01:18:40;;;;;;;10.60;2.83;;;;;;;5.54;77.03;95607.91;5092841;28;20056;-60
2023/04/01 01:21:32;;;;;;;9.30;2.53;;;;;;;5.55;76.30;95594.03;5092869;28;20398;-59
2023/04/01 01:24:34;;;;;;;4.38;2.60;;;;;;;5.45;77.16;95590.91;5092758;28;20535;-59
2023/04/01 01:27:05;;;;;;;7.72;2.83;;;;;;;5.40;77.51;95600.59;5092774;28;20071;-59
2023/04/01 01:29:53;;;;;;;6.68;2.70;;;;;;;5.43;77.68;95592.69;5092862;28;20402;-59
2023/04/01 01:32:40;;;;;;;6.03;2.70;;;;;;;5.42;76.66;95597.03;5093039;28;20048;-60
2023/04/01 01:35:20;;;;;;;5.93;2.70;;;;;;;5.35;76.63;95592.09;5096731;28;20052;-59
2023/04/01 01:37:50;;;;;;;11.18;2.58;;;;;;;5.26;77.63;95586.31;5096632;28;20105;-59
2023/04/01 01:40:19;;;;;;;11.43;3.00;;;;;;;5.29;77.80;95598.31;5096584;28;20080;-59
2023/04/01 01:42:51;;;;;;;4.82;2.92;;;;;;;5.24;77.73;95608.84;5096750;28;20052;-59
2023/04/01 01:45:27;;;;;;;6.15;2.97;;;;;;;5.29;79.53;95617.34;5096424;28;20048;-59
2023/04/01 01:47:57;;;;;;;4.45;2.63;;;;;;;5.27;79.37;95613.09;5096565;28;20098;-59
2023/04/01 01:50:28;;;;;;;4.68;2.90;;;;;;;5.28;78.20;95610.47;5096325;28;20048;-59
2023/04/01 01:53:03;;;;;;;10.10;3.20;;;;;;;5.27;78.29;95603.56;5096303;28;20051;-60
2023/04/01 01:55:33;;;;;;;3.22;2.28;;;;;;;5.30;78.67;95611.25;5096360;28;20448;-59
2023/04/01 01:58:05;;;;;;;7.65;2.85;;;;;;;5.30;77.71;95600.88;5096260;28;20083;-59
2023/04/01 02:00:33;;;;;;;8.07;2.80;;;;;;;5.26;78.29;95594.09;5096241;28;20052;-59
2023/04/01 02:03:01;;;;;;;8.40;3.08;;;;;;;5.21;78.73;95592.53;5096422;28;20044;-59
2023/04/01 02:05:32;;;;;;;6.18;2.70;;;;;;;5.24;78.54;95592.44;5096125;28;20075;-59
2023/04/01 02:08:06;;;;;;;6.55;2.70;;;;;;;5.11;78.26;95594.56;5096379;28;20077;-59
2023/04/01 02:10:39;;;;;;;7.97;2.58;;;;;;;5.14;79.91;95589.28;5095914;28;20478;-59
2023/04/01 02:13:15;;;;;;;5.93;3.00;;;;;;;5.17;79.53;95584.00;5095976;28;20044;-59
2023/04/01 02:15:47;;;;;;;9.38;2.92;;;;;;;5.14;79.29;95577.19;5095911;28;20052;-59
2023/04/01 02:18:16;;;;;;;5.28;2.95;;;;;;;5.14;80.66;95578.91;5095855;28;20115;-59
2023/04/01 02:20:47;;;;;;;5.90;2.58;;;;;;;5.18;80.77;95567.56;5095817;28;20052;-59
2023/04/01 02:23:15;;;;;;;9.68;2.95;;;;;;;5.19;79.81;95564.06;5095764;28;20131;-59
2023/04/01 02:25:44;;;;;;;5.97;2.63;;;;;;;5.06;80.07;95561.88;5095628;28;20084;-60
2023/04/01 02:28:19;;;;;;;5.72;3.08;;;;;;;5.04;81.42;95552.44;5095635;28;20482;-59
2023/04/01 02:30:51;;;;;;;5.68;2.92;;;;;;;5.16;81.37;95548.63;5095590;28;20056;-59
2023/04/01 02:33:20;;;;;;;11.15;3.50;;;;;;;5.19;81.76;95551.09;5094874;28;20044;-60
2023/04/01 02:35:49;;;;;;;4.90;2.75;;;;;;;5.18;80.91;95539.88;5095526;28;20048;-59
2023/04/01 02:38:16;;;;;;;4.85;3.00;;;;;;;5.20;81.48;95537.25;5095424;28;20493;-59
2023/04/01 02:40:46;;;;;;;6.53;3.25;;;;;;;5.22;81.13;95538.03;5095445;28;20592;-60
2023/04/01 02:43:14;;;;;;;5.68;3.30;;;;;;;5.26;81.46;95538.78;5094804;28;20539;-59
2023/04/01 02:45:41;;;;;;;8.15;3.35;;;;;;;5.29;81.73;95543.88;5095248;28;20144;-59
2023/04/01 02:48:09;;;;;;;4.80;2.53;;;;;;;5.26;81.85;95550.00;5095335;28;20051;-59
2023/04/01 02:50:36;;;;;;;39.08;25.75;;;;;;;5.27;80.69;95554.28;5095675;28;20082;-59
2023/04/01 02:53:06;;;;;;;15.32;11.00;;;;;;;5.23;80.58;95550.09;5095044;28;20044;-59
2023/04/01 02:55:33;;;;;;;8.98;6.47;;;;;;;5.29;80.90;95564.63;5095041;28;20047;-59
2023/04/01 02:58:01;;;;;;;11.82;5.97;;;;;;;5.35;80.67;95558.38;5095318;28;20048;-59
2023/04/01 03:00:28;;;;;;;12.18;3.95;;;;;;;5.37;80.78;95564.38;5095081;28;20118;-59
2023/04/01 03:02:56;;;;;;;7.57;3.55;;;;;;;5.39;79.90;95568.59;5095124;28;20121;-59
2023/04/01 03:05:24;;;;;;;13.35;3.67;;;;;;;5.41;79.06;95565.94;5095004;28;20131;-59
2023/04/01 03:07:51;;;;;;;5.63;2.85;;;;;;;5.42;79.22;95565.91;5095058;28;20040;-59
2023/04/01 03:10:20;;;;;;;5.45;2.88;;;;;;;5.44;79.29;95558.06;5094828;28;20050;-59
2023/04/01 03:12:47;;;;;;;5.35;3.08;;;;;;;5.41;79.26;95555.56;5094725;28;20051;-59
2023/04/01 03:15:16;;;;;;;9.60;3.92;;;;;;;5.46;79.31;95555.44;5094745;28;20086;-59
2023/04/01 03:17:44;;;;;;;9.82;3.80;;;;;;;5.51;79.62;95558.72;5094712;28;20082;-59
2023/04/01 03:20:13;;;;;;;10.98;6.57;;;;;;;5.50;79.08;95547.50;5094612;28;20516;-59
2023/04/01 03:22:40;;;;;;;14.07;7.43;;;;;;;5.48;79.42;95541.50;5094567;28;20568;-59
2023/04/01 03:25:09;;;;;;;12.75;4.47;;;;;;;5.49;79.90;95547.53;5094435;28;20071;-59
2023/04/01 03:27:38;;;;;;;7.95;3.33;;;;;;;5.54;79.96;95549.09;5094439;28;20127;-59
2023/04/01 03:30:11;;;;;;;4.05;3.40;;;;;;;5.58;79.73;95531.69;5094461;28;20059;-59
2023/04/01 03:32:39;;;;;;;6.65;3.30;;;;;;;5.61;80.21;95528.13;5094134;28;20441;-59
2023/04/01 03:35:09;;;;;;;4.75;3.17;;;;;;;5.62;80.27;95528.06;5094419;28;20048;-59
2023/04/01 03:37:37;;;;;;;9.15;4.78;;;;;;;5.67;80.18;95528.78;5094255;28;20505;-59
2023/04/01 03:40:05;;;;;;;9.75;3.75;;;;;;;5.69;80.22;95524.34;5094180;28;20040;-59
2023/04/01 03:42:33;;;;;;;5.82;2.88;;;;;;;5.75;80.23;95528.47;5094116;28;20044;-59
2023/04/01 03:45:03;;;;;;;15.75;3.67;;;;;;;5.78;80.54;95528.38;5094145;28;20044;-60
2023/04/01 03:47:31;;;;;;;3.42;3.00;;;;;;;5.85;81.02;95529.03;5094271;28;20052;-59
2023/04/01 03:49:59;;;;;;;6.00;3.03;;;;;;;5.87;80.71;95535.00;5094182;28;20125;-60
2023/04/01 03:52:27;;;;;;;7.30;3.47;;;;;;;5.83;80.94;95528.22;5093987;28;20048;-59
2023/04/01 03:54:55;;;;;;;7.10;2.70;;;;;;;5.87;81.65;95523.78;5093466;28;20055;-59
2023/04/01 03:57:23;;;;;;;5.85;2.70;;;;;;;5.80;81.42;95511.00;5093665;28;20050;-59
2023/04/01 03:59:56;;;;;;;8.50;3.10;;;;;;;5.88;81.57;95502.97;5093995;28;20054;-59
2023/04/01 04:02:25;;;;;;;4.45;2.55;;;;;;;5.97;82.20;95506.97;5093968;28;20050;-59
2023/04/01 04:04:54;;;;;;;8.23;2.47;;;;;;;5.97;82.02;95506.13;5093793;28;20048;-59
2023/04/01 04:07:22;;;;;;;4.30;2.67;;;;;;;5.91;81.46;95515.84;5093891;28;20083;-59
2023/04/01 04:09:52;;;;;;;3.22;2.67;;;;;;;5.92;81.65;95511.47;5093688;28;20040;-59
2023/04/01 04:12:22;;;;;;;4.25;3.05;;;;;;;5.98;81.58;95513.00;5093508;28;20507;-59
2023/04/01 04:14:56;;;;;;;4.63;2.47;;;;;;;6.03;81.59;95514.53;5093923;28;20119;-59
2023/04/01 04:17:25;;;;;;;6.65;2.95;;;;;;;5.89;82.08;95511.56;5093666;28;20046;-59
2023/04/01 04:19:54;;;;;;;5.07;2.83;;;;;;;5.86;83.23;95499.56;5093598;28;20044;-59
2023/04/01 04:22:22;;;;;;;7.38;3.15;;;;;;;5.96;83.28;95494.88;5093416;28;20527;-60
2023/04/01 04:24:52;;;;;;;5.55;2.53;;;;;;;6.04;83.38;95492.03;5093377;28;20054;-59
2023/04/01 04:27:22;;;;;;;11.90;3.23;;;;;;;6.13;82.91;95496.03;5093263;28;20044;-59
2023/04/01 04:29:49;;;;;;;5.90;3.13;;;;;;;6.23;82.60;95487.00;5093419;28;20044;-59
2023/04/01 04:32:17;;;;;;;6.70;2.90;;;;;;;6.31;82.06;95489.31;5093270;28;20184;-59
2023/04/01 04:34:46;;;;;;;5.28;2.45;;;;;;;6.34;81.96;95486.59;5093386;28;20087;-60
2023/04/01 04:37:14;;;;;;;6.45;2.78;;;;;;;6.40;81.64;95485.53;5093364;28;20566;-59
2023/04/01 04:39:43;;;;;;;6.88;2.55;;;;;;;6.44;81.32;95484.50;5093368;28;20062;-59
2023/04/01 04:42:11;;;;;;;10.13;3.53;;;;;;;6.48;81.28;95493.03;5093390;28;20052;-59
2023/04/01 04:44:41;;;;;;;4.65;2.63;;;;;;;6.48;81.20;95486.09;5093199;28;20403;-60
2023/04/01 04:47:10;;;;;;;6.30;2.88;;;;;;;6.51;80.88;95488.56;5093157;28;20051;-59
2023/04/01 04:49:38;;;;;;;9.10;3.10;;;;;;;6.57;81.16;95496.09;5093222;28;20051;-59
2023/04/01 04:52:09;;;;;;;5.82;2.45;;;;;;;6.60;81.30;95495.16;5093162;28;20051;-59
2023/04/01 04:54:38;;;;;;;8.43;2.25;;;;;;;6.64;81.05;95495.88;5093257;28;20055;-59
2023/04/01 04:57:08;;;;;;;7.30;2.50;;;;;;;6.71;80.85;95489.53;5093231;28;20055;-59
2023/04/01 04:59:36;;;;;;;8.00;2.30;;;;;;;6.74;80.86;95499.81;5093111;28;20048;-59
2023/04/01 05:02:04;;;;;;;5.72;2.40;;;;;;;6.78;80.78;95484.94;5093056;28;20272;-60
2023/04/01 05:04:36;;;;;;;8.13;3.00;;;;;;;6.87;80.45;95489.78;5093067;28;20375;-60
2023/04/01 05:07:09;;;;;;;5.75;3.22;;;;;;;7.00;80.05;95497.06;5094369;28;20048;-59
2023/04/01 05:09:40;;;;;;;6.38;2.92;;;;;;;7.08;79.90;95495.03;5097132;28;20087;-59
2023/04/01 05:12:08;;;;;;;8.25;4.03;;;;;;;7.23;79.81;95496.16;5097193;28;20055;-59
2023/04/01 05:14:37;;;;;;;8.15;4.75;;;;;;;7.36;79.14;95487.81;5097105;28;20044;-59
2023/04/01 05:17:09;;;;;;;12.45;5.32;;;;;;;7.52;78.19;95488.00;5096978;28;20493;-59
2023/04/01 05:19:39;;;;;;;10.02;6.63;;;;;;;7.84;77.57;95483.16;5097030;28;20044;-60
2023/04/01 05:22:08;;;;;;;12.27;6.45;;;;;;;8.54;76.82;95477.47;5096834;28;20433;-60
2023/04/01 05:24:36;;;;;;;14.05;6.93;;;;;;;9.27;73.88;95469.69;5096773;28;20486;-59
2023/04/01 05:27:05;;;;;;;9.48;5.25;;;;;;;9.51;70.98;95475.41;5096738;28;20539;-60
2023/04/01 05:29:34;;;;;;;11.40;5.93;;;;;;;9.65;70.00;95473.88;5096696;28;20062;-59
2023/04/01 05:32:02;;;;;;;8.80;5.47;;;;;;;9.76;70.37;95470.72;5096698;28;20082;-59
2023/04/01 05:34:30;;;;;;;11.50;5.55;;;;;;;9.90;71.10;95478.66;5096571;28;20040;-59
2023/04/01 05:37:00;;;;;;;9.32;5.63;;;;;;;10.08;71.11;95469.03;5096576;28;20051;-60
2023/04/01 05:39:30;;;;;;;9.30;5.40;;;;;;;10.22;70.34;95470.06;5096743;28;20149;-59
2023/04/01 05:41:59;;;;;;;9.32;5.28;;;;;;;10.34;70.33;95471.16;5096448;28;20459;-60
2023/04/01 05:44:27;;;;;;;8.55;5.32;;;;;;;10.43;69.65;95469.81;5096351;28;20047;-59
2023/04/01 05:46:57;;;;;;;15.13;5.53;;;;;;;10.45;69.81;95468.81;5096316;28;20055;-59
2023/04/01 05:49:25;;;;;;;16.58;4.90;;;;;;;10.52;69.73;95463.25;5096242;28;20052;-60
2023/04/01 05:51:52;;;;;;;7.35;5.25;;;;;;;10.52;69.71;95465.88;5096255;28;20402;-59
2023/04/01 05:54:21;;;;;;;8.30;5.85;;;;;;;10.52;69.44;95464.13;5096124;28;20040;-59
2023/04/01 05:56:51;;;;;;;7.22;5.75;;;;;;;10.48;67.91;95462.59;5096236;28;20048;-60
2023/04/01 05:59:19;;;;;;;14.30;5.57;;;;;;;10.46;68.08;95465.31;5096234;28;20040;-60
2023/04/01 06:01:47;;;;;;;11.50;6.70;;;;;;;10.44;68.19;95458.41;5096068;28;20048;-59
2023/04/01 06:04:17;;;;;;;13.60;6.18;;;;;;;10.41;68.55;95456.00;5096237;28;20044;-59
2023/04/01 06:06:47;;;;;;;11.40;5.20;;;;;;;10.43;69.71;95461.97;5096107;28;20047;-60
2023/04/01 06:09:17;;;;;;;10.10;5.82;;;;;;;10.45;69.32;95462.75;5096134;28;20052;-59
2023/04/01 06:12:04;;;;;;;18.15;5.97;;;;;;;10.44;68.67;95463.66;5096100;28;20469;-59
2023/04/01 06:14:46;;;;;;;10.27;5.90;;;;;;;10.49;67.69;95448.59;5095873;28;20451;-60
2023/04/01 06:17:31;;;;;;;11.20;5.80;;;;;;;10.60;67.28;95458.47;5095898;28;20135;-59
2023/04/01 06:20:12;;;;;;;9.60;5.88;;;;;;;10.66;67.14;95458.13;5094879;28;20074;-59
2023/04/01 06:22:53;;;;;;;12.63;5.68;;;;;;;10.64;66.62;95459.13;5095819;28;20123;-59
2023/04/01 06:25:38;;;;;;;12.65;5.72;;;;;;;10.55;67.29;95456.09;5095741;28;20044;-59
2023/04/01 06:28:40;;;;;;;10.35;5.38;;;;;;;10.55;67.51;95443.03;5095576;28;20123;-60
2023/04/01 06:31:16;;;;;;;8.52;5.88;;;;;;;10.59;67.28;95438.47;5095621;28;20040;-60
2023/04/01 06:33:58;;;;;;;10.35;5.93;;;;;;;10.64;67.23;95436.44;5095293;28;20048;-60
2023/04/01 06:37:03;;;;;;;10.35;5.72;;;;;;;10.68;67.06;95437.94;5095556;28;20048;-60
2023/04/01 06:40:05;;;;;;;10.93;5.47;;;;;;;10.72;66.83;95430.78;5044954;28;20455;-60
2023/04/01 06:43:02;;;;;;;10.10;5.20;;;;;;;10.71;67.15;95437.78;5095393;28;20055;-60
2023/04/01 06:45:42;;;;;;;16.70;5.05;;;;;;;10.79;66.90;95441.75;5095142;28;20040;-60
2023/04/01 06:48:37;;;;;;;10.25;5.25;;;;;;;10.85;66.68;95430.94;5095221;28;20497;-60
2023/04/01 06:51:18;;;;;;;8.55;4.82;;;;;;;10.89;66.74;95414.13;5095153;28;20084;-60
2023/04/01 07:04:22;;;;;;;7.10;3.20;;;;;;;11.53;62.74;95414.84;4577173;27;15591964;-59
2023/04/01 07:06:54;;;;;;;9.63;3.20;;;;;;;11.44;62.53;95427.53;5110781;28;20048;-59
2023/04/01 07:09:26;;;;;;;11.40;3.70;;;;;;;11.32;63.57;95426.47;5110666;28;20054;-59
2023/04/01 07:11:58;;;;;;;15.40;5.22;;;;;;;11.36;64.22;95422.78;5110576;28;20405;-60
2023/04/01 07:14:30;;;;;;;10.50;4.78;;;;;;;11.38;64.38;95423.50;5110567;28;20040;-60
2023/04/01 07:17:02;;;;;;;11.90;4.70;;;;;;;11.43;63.62;95417.16;5110542;28;20062;-60
2023/04/01 07:19:37;;;;;;;4.78;2.50;;;;;;;11.43;62.99;95412.78;5110643;28;20097;-59
2023/04/01 07:22:07;;;;;;;7.25;3.17;;;;;;;11.41;63.38;95398.91;5110465;28;20052;-59
2023/04/01 07:24:37;;;;;;;8.50;3.17;;;;;;;11.30;64.12;95398.72;5110614;28;20074;-59
2023/04/01 07:27:09;;;;;;;6.13;2.88;;;;;;;11.30;63.75;95389.09;5110461;28;20435;-60
2023/04/01 07:29:37;;;;;;;5.38;3.00;;;;;;;11.23;64.51;95382.56;5110229;28;20732;-59
2023/04/01 07:32:14;;;;;;;8.10;3.17;;;;;;;11.16;64.43;95384.66;5110236;28;20134;-59
2023/04/01 07:34:58;;;;;;;7.57;2.80;;;;;;;11.16;64.67;95381.19;5110205;28;20127;-59
2023/04/01 07:37:31;;;;;;;9.75;2.83;;;;;;;11.28;64.20;95382.25;5110233;28;20097;-59
2023/04/01 07:40:11;;;;;;;6.03;2.88;;;;;;;11.86;62.83;95393.59;5110190;28;20630;-59
2023/04/01 07:42:54;;;;;;;4.88;2.53;;;;;;;12.40;60.41;95403.50;5110120;28;20447;-59
2023/04/01 07:45:30;;;;;;;9.93;2.72;;;;;;;12.73;59.73;95415.38;5110091;28;20039;-60
2023/04/01 07:48:21;;;;;;;7.10;2.92;;;;;;;13.20;59.49;95400.09;5109925;28;20039;-60
2023/04/01 07:50:58;;;;;;;11.82;2.65;;;;;;;13.77;58.10;95400.69;5109997;28;20054;-59
2023/04/01 07:53:32;;;;;;;6.85;2.97;;;;;;;14.36;55.16;95400.97;5109999;28;20458;-59
2023/04/01 07:56:07;;;;;;;8.85;3.03;;;;;;;14.85;52.50;95393.16;5109880;28;20481;-59
2023/04/01 07:58:44;;;;;;;7.00;3.00;;;;;;;15.19;52.83;95392.44;5109894;28;20047;-59
2023/04/01 08:01:20;;;;;;;11.80;2.97;;;;;;;15.64;52.97;95383.78;5109941;28;20447;-60
2023/04/01 08:04:15;;;;;;;3.58;2.17;;;;;;;16.00;48.03;95381.09;5104130;28;20121;-59
2023/04/01 08:06:49;;;;;;;6.40;2.65;;;;;;;15.95;47.93;95387.66;5096094;28;20052;-59
2023/04/01 08:09:24;;;;;;;6.00;2.35;;;;;;;15.77;48.58;95377.53;5096156;28;20048;-59
2023/04/01 08:12:04;;;;;;;8.10;2.30;;;;;;;15.69;49.27;95391.34;5095906;28;20131;-59
2023/04/01 08:14:41;;;;;;;4.43;2.83;;;;;;;15.84;49.48;95380.56;5095854;28;20052;-59
2023/04/01 08:17:16;;;;;;;5.30;2.70;;;;;;;16.06;49.19;95376.25;5095838;28;20489;-59
2023/04/01 08:19:57;;;;;;;7.68;2.70;;;;;;;16.54;49.34;95361.94;5095725;28;20504;-59
2023/04/01 08:22:34;;;;;;;8.63;2.60;;;;;;;17.09;47.16;95366.31;5095818;28;20055;-59
2023/04/01 08:25:07;;;;;;;5.22;2.67;;;;;;;17.61;47.58;95357.59;5095740;28;20055;-59
2023/04/01 08:27:39;;;;;;;4.63;2.22;;;;;;;18.09;45.89;95342.06;5095700;28;20459;-59
2023/04/01 08:30:18;;;;;;;9.27;2.70;;;;;;;18.35;43.41;95331.03;5095600;28;20485;-59
2023/04/01 08:32:53;;;;;;;5.88;2.60;;;;;;;18.49;43.71;95334.25;5095503;28;20485;-59
2023/04/01 08:35:28;;;;;;;6.72;2.70;;;;;;;18.45;40.92;95325.72;5095547;28;20083;-59
2023/04/01 08:38:02;;;;;;;5.47;2.75;;;;;;;18.32;41.79;95328.66;5095574;28;20040;-59
2023/04/01 08:40:58;;;;;;;4.63;2.80;;;;;;;18.21;43.66;95334.88;5095490;28;20072;-59
2023/04/01 08:43:56;;;;;;;7.53;2.90;;;;;;;18.49;44.08;95329.81;5092420;28;20052;-59
2023/04/01 08:46:55;;;;;;;4.80;2.40;;;;;;;18.04;43.54;95331.06;5095280;28;20044;-59
2023/04/01 08:49:55;;;;;;;4.63;2.55;;;;;;;18.28;43.78;95322.81;5095280;28;20059;-59
2023/04/01 08:52:35;;;;;;;6.65;2.70;;;;;;;18.44;41.65;95319.63;5095224;28;20097;-59
2023/04/01 08:55:37;;;;;;;7.20;3.15;;;;;;;18.36;42.07;95323.94;5095183;28;20075;-59
2023/04/01 08:58:59;;;;;;;6.35;2.97;;;;;;;18.30;42.57;95327.94;5095162;28;20052;-59
2023/04/01 09:01:50;;;;;;;5.18;2.92;;;;;;;18.21;42.24;95323.47;5077332;28;20089;-59
2023/04/01 09:04:32;;;;;;;;;;;;;;;18.14;43.20;95310.78;5095402;28;20040;-59
2023/04/01 09:07:22;;;;;;;10.73;2.58;;;;;;;18.04;43.11;95315.19;5095077;28;20288;-59
2023/04/01 09:10:26;;;;;;;7.47;2.75;;;;;;;17.73;45.57;95302.81;5094778;28;20519;-59
2023/04/01 09:13:12;;;;;;;7.28;3.13;;;;;;;17.38;45.26;95298.75;5094699;28;20048;-59
2023/04/01 09:16:19;;;;;;;5.75;3.03;;;;;;;17.10;47.55;95293.19;5093800;28;20481;-59
2023/04/01 09:19:22;;;;;;;8.60;2.85;;;;;;;16.96;49.38;95274.03;5088585;28;20052;-59
2023/04/01 09:22:15;;;;;;;17.88;3.90;;;;;;;17.17;48.52;95270.56;5094603;28;20059;-59
2023/04/01 09:25:03;;;;;;;8.40;3.47;;;;;;;17.28;47.81;95277.59;5094632;28;20536;-59
2023/04/01 09:27:43;;;;;;;5.65;2.92;;;;;;;17.04;49.54;95273.38;5094572;28;20082;-59
2023/04/01 09:30:57;;;;;;;10.32;3.40;;;;;;;17.16;49.82;95263.63;5094435;28;20118;-59
2023/04/01 09:34:02;;;;;;;13.73;3.60;;;;;;;17.37;50.64;95255.63;5012138;28;20153;-59
2023/04/01 09:36:47;;;;;;;10.77;3.08;;;;;;;17.59;49.66;95250.31;5012374;28;20099;-59
2023/04/01 09:39:32;;;;;;;10.32;3.88;;;;;;;17.76;49.07;95236.44;5087956;28;20081;-59
2023/04/01 09:42:15;;;;;;;15.32;3.33;;;;;;;17.67;49.22;95234.63;5094190;28;20059;-59
2023/04/01 09:45:02;;;;;;;11.48;3.00;;;;;;;17.60;49.36;95222.88;5094107;28;20052;-59
2023/04/01 09:47:50;;;;;;;10.65;3.45;;;;;;;17.46;50.78;95232.03;5093984;28;20044;-59
2023/04/01 09:50:41;;;;;;;10.85;4.07;;;;;;;17.42;51.14;95205.03;5094127;28;20062;-59
2023/04/01 09:53:17;;;;;;;;;;;;;;;17.53;51.92;95191.72;5094465;28;20131;-59
2023/04/01 09:56:15;;;;;;;17.83;3.90;;;;;;;17.69;52.38;95187.72;5094146;28;19926;-59
2023/04/01 09:59:08;;;;;;;12.18;3.17;;;;;;;17.87;50.62;95203.78;5093999;28;20054;-59
2023/04/01 10:01:49;;;;;;;11.10;3.53;;;;;;;17.86;51.19;95202.09;5090907;28;20044;-59
2023/04/01 10:04:49;;;;;;;11.55;3.97;;;;;;;17.87;50.30;95189.69;5093643;28;20105;-59
2023/04/01 10:07:50;;;;;;;9.38;2.88;;;;;;;18.01;50.14;95175.25;5093162;28;20523;-59
2023/04/01 10:11:00;;;;;;;11.95;4.22;;;;;;;18.36;51.20;95178.38;5093665;28;20132;-59
2023/04/01 10:14:09;;;;;;;14.52;4.10;;;;;;;18.47;50.54;95172.06;5011715;28;20054;-59
2023/04/01 10:16:58;;;;;;;9.18;3.97;;;;;;;18.28;49.25;95169.31;5011848;28;20133;-59
2023/04/01 10:20:03;;;;;;;9.43;4.10;;;;;;;18.07;49.58;95174.69;5093658;28;20382;-59
2023/04/01 10:23:00;;;;;;;11.52;4.53;;;;;;;17.55;50.71;95171.28;5089628;28;20066;-59
2023/04/01 10:25:51;;;;;;;16.80;4.15;;;;;;;17.07;52.44;95174.59;5093531;28;20047;-59
2023/04/01 10:28:51;;;;;;;14.90;4.20;;;;;;;16.92;53.88;95165.16;5093182;28;20083;-59
2023/04/01 10:31:48;;;;;;;14.77;4.45;;;;;;;17.03;53.43;95166.03;5072690;28;20393;-59
2023/04/01 10:34:58;;;;;;;13.82;4.95;;;;;;;17.18;53.34;95154.19;5093354;28;20134;-58
2023/04/01 10:37:45;;;;;;;14.45;4.80;;;;;;;17.29;52.19;95149.78;5031162;28;20084;-59
2023/04/01 10:40:37;;;;;;;14.95;4.50;;;;;;;17.34;52.55;95155.47;5031150;28;20133;-59
2023/04/01 10:43:30;;;;;;;8.57;4.15;;;;;;;17.57;53.67;95131.50;5077826;28;20047;-59
2023/04/01 10:46:28;;;;;;;12.98;3.85;;;;;;;17.93;52.58;95141.56;5049340;28;20044;-59
2023/04/01 10:49:27;;;;;;;12.93;3.75;;;;;;;18.24;51.18;95132.69;5093250;28;20082;-59
2023/04/01 10:52:30;;;;;;;13.38;3.38;;;;;;;18.71;52.23;95131.91;5093224;28;20385;-59
2023/04/01 10:55:28;;;;;;;11.40;3.80;;;;;;;18.98;51.61;95130.28;5092581;28;20047;-59
2023/04/01 10:58:38;;;;;;;12.90;3.38;;;;;;;19.28;48.68;95123.06;5093097;28;20079;-59
2023/04/01 11:01:22;;;;;;;;;;;;;;;19.30;47.54;95121.09;5084779;28;20052;-59
2023/04/01 11:04:22;;;;;;;14.73;4.57;;;;;;;19.13;48.26;95105.97;5092367;28;19970;-59
2023/04/01 11:07:33;;;;;;;9.65;3.67;;;;;;;19.37;48.15;95088.69;5093028;28;20048;-59
2023/04/01 11:10:36;;;;;;;9.70;3.20;;;;;;;19.64;47.89;95092.31;5055929;28;20048;-66
2023/04/01 11:13:40;;;;;;;15.43;3.80;;;;;;;19.43;47.04;95090.75;5092913;28;20401;-64
2023/04/01 11:16:32;;;;;;;11.77;3.42;;;;;;;19.60;47.46;95093.59;5088468;28;20484;-63
2023/04/01 11:19:50;;;;;;;18.42;3.75;;;;;;;19.60;47.03;95078.53;5092766;28;20387;-66
2023/04/01 11:22:45;;;;;;;14.52;3.55;;;;;;;19.53;47.23;95078.28;5092896;28;20084;-64
2023/04/01 11:25:51;;;;;;;15.93;3.78;;;;;;;19.42;47.71;95068.72;5092810;28;20083;-65
2023/04/01 11:28:50;;;;;;;14.93;3.75;;;;;;;19.38;48.75;95059.41;5092866;28;20131;-64
2023/04/01 11:31:30;;;;;;;16.65;3.47;;;;;;;19.44;47.95;95060.59;5059710;28;20127;-63
2023/04/01 11:34:10;;;;;;;15.43;3.30;;;;;;;19.34;47.88;95033.34;5072514;28;20048;-65
2023/04/01 11:36:51;;;;;;;8.65;3.45;;;;;;;19.52;47.42;95025.41;5072545;28;20115;-68
2023/04/01 11:39:29;;;;;;;12.30;3.55;;;;;;;19.38;48.65;95008.22;5074101;28;20045;-65
2023/04/01 11:42:11;;;;;;;9.77;3.25;;;;;;;19.18;49.06;95008.34;5076276;28;20045;-64
2023/04/01 11:44:49;;;;;;;11.82;3.70;;;;;;;19.27;48.00;95044.53;5076322;28;20040;-66
2023/04/01 11:47:41;;;;;;;11.95;3.50;;;;;;;19.11;48.46;95020.53;5083912;28;20121;-63
2023/04/01 11:50:26;;;;;;;20.67;4.00;;;;;;;18.47;50.68;95003.50;5062803;28;20048;-66
2023/04/01 11:53:09;;;;;;;13.50;3.55;;;;;;;18.33;52.56;95007.44;5096199;28;20040;-65
2023/04/01 11:55:47;;;;;;;9.27;2.97;;;;;;;17.95;51.71;95012.66;5096145;28;20052;-62
2023/04/01 11:58:29;;;;;;;16.20;4.15;;;;;;;17.85;53.11;94990.69;5096260;28;20093;-66
2023/04/01 12:01:37;;;;;;;18.10;4.20;;;;;;;17.73;53.49;94987.34;5096203;28;20044;-62
2023/04/01 12:04:38;;;;;;;17.25;3.92;;;;;;;17.87;52.67;94981.63;5053490;28;20097;-64
2023/04/01 12:07:19;;;;;;;16.25;3.47;;;;;;;17.82;52.80;94967.97;5075729;28;20045;-64
2023/04/01 12:10:00;;;;;;;14.82;3.78;;;;;;;17.91;51.81;94956.56;5075777;28;20105;-66
2023/04/01 12:12:42;;;;;;;8.90;3.42;;;;;;;18.06;51.67;94979.91;5075619;28;20056;-66
2023/04/01 12:15:24;;;;;;;9.35;3.50;;;;;;;17.87;51.30;94960.47;5075503;28;20049;-66
2023/04/01 12:18:04;;;;;;;11.70;3.28;;;;;;;18.08;52.73;94969.19;5075567;28;20045;-64
2023/04/01 12:20:44;;;;;;;9.33;3.33;;;;;;;18.15;51.34;94942.03;5075640;28;20498;-67
2023/04/01 12:23:29;;;;;;;16.63;3.83;;;;;;;18.33;52.98;94946.56;5073681;28;20308;-62
2023/04/01 12:26:31;;;;;;;12.55;3.10;;;;;;;18.75;51.17;94941.78;5075391;28;20045;-64
2023/04/01 12:29:14;;;;;;;7.38;3.05;;;;;;;19.03;48.56;94944.41;5075297;28;20063;-63
2023/04/01 12:32:09;;;;;;;;;;;;;;;;;;;;;
2023/04/01 12:35:16;;;;;;;14.48;3.55;;;;;;;19.21;48.81;94936.50;5051790;28;20433;-65
2023/04/01 12:37:59;;;;;;;12.35;2.88;;;;;;;19.52;45.27;94943.22;5051283;28;20053;-66
2023/04/01 12:40:58;;;;;;;13.73;3.47;;;;;;;19.57;45.97;94925.84;5052686;28;20052;-65